Manchester, Oklahoma
Current Conditions -  °F | °C
As of 8:10 PM on Sunday 25 Jan 2015 (Local Time) from KAVK Reporting Station
Scattered Clouds Scattered Clouds  
Wind Chill: 38°   Ceiling: Unl
Heat Index: 43°   Visibility: 10mi
Dew Point: 25°   Wind: 8mph
Humidity: 49%   Direction: 10°N
Pressure: 30.15"   Gusts: NA
Location:  36.99°N, 98.04°W
Report Text: KAVK 260210Z AUTO 01007KT 10SM SCT016 06/M04 A3015 RMK AO2
Loading
Personal Weather Stations






























Interactive Weather Map New forecast layout! Learn more

10-Day Weather Forecast

Advertisements
Track Severe Weather on mobile